createdAt,value
2018-12-01T00:01:27.958Z,54.10
2018-12-01T00:03:55.966Z,57.30
2018-12-01T00:06:23.955Z,61.40
2018-12-01T00:08:51.938Z,57.77
2018-12-01T00:11:19.903Z,55.57
2018-12-01T00:13:48.049Z,56.03
2018-12-01T00:16:16.025Z,55.13
2018-12-01T00:18:44.002Z,49.40
2018-12-01T00:21:12.110Z,55.67
2018-12-01T00:23:40.078Z,63.87
2018-12-01T00:26:08.094Z,49.73
2018-12-01T00:28:36.074Z,51.93
2018-12-01T00:31:04.062Z,48.53
2018-12-01T00:33:32.155Z,59.43
2018-12-01T00:36:00.189Z,50.67
2018-12-01T00:38:28.167Z,58.17
2018-12-01T00:40:56.139Z,52.80
2018-12-01T00:43:24.087Z,52.47
2018-12-01T00:45:52.087Z,50.67
2018-12-01T00:48:20.063Z,48.47
2018-12-01T00:50:48.071Z,52.83
2018-12-01T00:53:16.059Z,54.07
2018-12-01T00:55:44.031Z,48.03
2018-12-01T00:58:12.006Z,52.93
2018-12-01T01:00:40.106Z,52.60
2018-12-01T01:03:08.074Z,46.63
2018-12-01T01:05:36.014Z,57.53
2018-12-01T01:08:04.102Z,50.30
2018-12-01T01:10:33.231Z,51.33
2018-12-01T01:13:01.204Z,50.67
2018-12-01T01:15:29.255Z,47.03
2018-12-01T01:17:57.425Z,49.80
2018-12-01T01:20:25.440Z,50.43
2018-12-01T01:22:53.475Z,47.40
2018-12-01T01:25:21.450Z,49.90
2018-12-01T01:27:49.417Z,51.80
2018-12-01T01:30:23.450Z,41.63
2018-12-01T01:32:52.615Z,54.33
2018-12-01T01:35:20.593Z,52.20
2018-12-01T01:37:48.630Z,49.47
2018-12-01T01:40:17.378Z,51.43
2018-12-01T01:42:45.435Z,51.10
2018-12-01T01:45:18.533Z,55.37
2018-12-01T01:47:46.775Z,49.53
2018-12-01T01:50:15.979Z,46.27
2018-12-01T01:52:44.012Z,47.67
2018-12-01T01:55:12.270Z,57.37
2018-12-01T01:57:40.699Z,50.37
2018-12-01T02:00:14.856Z,53.30
2018-12-01T02:02:45.047Z,49.80
2018-12-01T02:05:13.075Z,51.73
2018-12-01T02:07:41.059Z,55.33
2018-12-01T02:10:09.752Z,55.57
2018-12-01T02:12:37.823Z,50.13
2018-12-01T02:15:06.610Z,54.27
2018-12-01T02:17:34.703Z,54.90
2018-12-01T02:20:02.747Z,60.23
2018-12-01T02:22:30.776Z,57.30
2018-12-01T02:24:58.743Z,54.03
2018-12-01T02:27:26.761Z,47.93
2018-12-01T02:29:54.965Z,54.03
2018-12-01T02:32:22.952Z,64.70
2018-12-01T02:34:50.947Z,46.33
2018-12-01T02:37:18.972Z,49.80
2018-12-01T02:39:47.008Z,55.53
2018-12-01T02:42:15.202Z,55.07
2018-12-01T02:45:04.607Z,52.27
2018-12-01T02:47:33.270Z,53.03
2018-12-01T02:50:01.349Z,53.43
2018-12-01T02:52:29.331Z,57.00
2018-12-01T02:54:58.205Z,53.80
2018-12-01T02:57:26.190Z,49.73
2018-12-01T02:59:54.194Z,56.97
2018-12-01T03:02:24.347Z,53.53
2018-12-01T03:04:53.123Z,57.67
2018-12-01T03:07:21.216Z,47.33
2018-12-01T03:09:49.209Z,56.53
2018-12-01T03:12:17.225Z,47.57
2018-12-01T03:14:45.388Z,49.10
2018-12-01T03:17:13.383Z,52.13
2018-12-01T03:19:41.440Z,51.70
2018-12-01T03:22:09.416Z,43.53
2018-12-01T03:24:37.395Z,43.47
2018-12-01T03:27:05.770Z,44.03
2018-12-01T03:29:33.744Z,47.27
2018-12-01T03:32:01.762Z,47.10
2018-12-01T03:34:29.763Z,49.17
2018-12-01T03:36:57.833Z,42.90
2018-12-01T03:39:25.819Z,61.93
2018-12-01T03:41:53.895Z,50.17
2018-12-01T03:44:21.861Z,47.07
2018-12-01T03:46:49.835Z,50.47
2018-12-01T03:49:17.814Z,53.53
2018-12-01T03:51:45.763Z,47.80
2018-12-01T03:54:13.723Z,54.20
2018-12-01T03:56:41.730Z,45.43
2018-12-01T03:59:09.704Z,60.97
2018-12-01T04:01:37.674Z,58.90
2018-12-01T04:04:05.733Z,58.17
2018-12-01T04:06:33.691Z,49.50
2018-12-01T04:09:05.921Z,48.03
2018-12-01T04:11:33.903Z,43.40
2018-12-01T04:14:01.962Z,49.57
2018-12-01T04:16:29.963Z,47.07
2018-12-01T04:18:57.967Z,48.37
2018-12-01T04:21:25.972Z,50.67
2018-12-01T04:23:53.966Z,53.17
2018-12-01T04:26:21.936Z,45.40
2018-12-01T04:28:49.983Z,45.13
2018-12-01T04:31:17.994Z,37.80
2018-12-01T04:33:46.027Z,48.50
2018-12-01T04:36:14.055Z,42.17
2018-12-01T04:38:42.158Z,42.07
2018-12-01T04:41:10.127Z,42.60
2018-12-01T04:43:38.123Z,42.70
2018-12-01T04:46:06.112Z,42.47
2018-12-01T04:48:34.095Z,35.10
2018-12-01T04:51:02.086Z,30.23
2018-12-01T04:53:30.243Z,45.93
2018-12-01T04:55:58.219Z,38.33
2018-12-01T04:58:26.230Z,35.30
2018-12-01T05:00:54.220Z,34.70
2018-12-01T05:03:22.198Z,36.37
2018-12-01T05:05:50.178Z,39.87
2018-12-01T05:08:18.226Z,31.30
2018-12-01T05:10:46.207Z,40.93
2018-12-01T05:13:14.166Z,32.63
2018-12-01T05:15:42.131Z,35.53
2018-12-01T05:18:10.116Z,29.80
2018-12-01T05:20:38.163Z,37.17
2018-12-01T05:23:06.152Z,30.07
2018-12-01T05:25:34.192Z,34.33
2018-12-01T05:28:02.218Z,41.13
2018-12-01T05:30:30.205Z,29.87
2018-12-01T05:32:58.295Z,40.10
2018-12-01T05:35:26.281Z,40.13
2018-12-01T05:37:55.246Z,35.00
2018-12-01T05:40:23.275Z,33.87
2018-12-01T05:42:51.278Z,33.33
2018-12-01T05:45:20.988Z,33.13
2018-12-01T05:47:49.349Z,37.23
2018-12-01T05:50:24.386Z,37.60
2018-12-01T05:52:53.314Z,28.70
2018-12-01T05:55:21.442Z,31.07
2018-12-01T05:57:49.474Z,35.47
2018-12-01T06:00:17.634Z,30.43
2018-12-01T06:02:45.605Z,28.70
2018-12-01T06:05:13.592Z,35.53
2018-12-01T06:07:42.356Z,30.27
2018-12-01T06:10:16.574Z,28.43
2018-12-01T06:12:44.944Z,33.40
2018-12-01T06:15:13.838Z,34.00
2018-12-01T06:17:41.888Z,30.10
2018-12-01T06:20:11.108Z,37.67
2018-12-01T06:22:39.079Z,30.17
2018-12-01T06:25:09.103Z,32.80
2018-12-01T06:27:37.098Z,35.53
2018-12-01T06:30:08.527Z,31.90
2018-12-01T06:32:36.494Z,38.10
2018-12-01T06:35:04.855Z,35.87
2018-12-01T06:37:32.835Z,32.80
2018-12-01T06:40:00.806Z,36.63
2018-12-01T06:42:29.314Z,38.63
2018-12-01T06:44:57.283Z,28.17
2018-12-01T06:47:25.268Z,38.53
2018-12-01T06:49:53.247Z,29.40
2018-12-01T06:52:21.356Z,37.47
2018-12-01T06:54:49.340Z,33.50
2018-12-01T06:57:17.529Z,36.50
2018-12-01T06:59:45.515Z,37.97
2018-12-01T07:02:13.499Z,36.67
2018-12-01T07:04:41.527Z,35.90
2018-12-01T07:07:09.511Z,32.87
2018-12-01T07:09:37.483Z,40.30
2018-12-01T07:12:05.612Z,31.20
2018-12-01T07:14:33.583Z,31.70
2018-12-01T07:17:01.603Z,34.67
2018-12-01T07:19:29.571Z,40.63
2018-12-01T07:21:57.595Z,34.43
2018-12-01T07:24:25.568Z,34.70
2018-12-01T07:26:53.621Z,31.40
2018-12-01T07:29:21.600Z,30.63
2018-12-01T07:31:49.571Z,26.20
2018-12-01T07:34:17.545Z,28.87
2018-12-01T07:36:45.507Z,36.43
2018-12-01T07:39:13.487Z,26.40
2018-12-01T07:41:41.472Z,36.17
2018-12-01T07:44:09.518Z,36.20
2018-12-01T07:46:37.455Z,33.07
2018-12-01T07:49:05.439Z,32.60
2018-12-01T07:51:33.399Z,25.67
2018-12-01T07:54:01.397Z,28.40
2018-12-01T07:56:29.970Z,30.30
2018-12-01T07:58:57.927Z,27.47
2018-12-01T08:01:25.928Z,31.10
2018-12-01T08:03:53.910Z,29.30
2018-12-01T08:06:21.927Z,22.90
2018-12-01T08:08:49.899Z,27.63
2018-12-01T08:11:17.892Z,34.07
2018-12-01T08:13:45.871Z,26.00
2018-12-01T08:16:13.873Z,29.37
2018-12-01T08:18:41.883Z,25.70
2018-12-01T08:21:09.882Z,28.83
2018-12-01T08:23:37.850Z,27.93
2018-12-01T08:26:06.310Z,29.20
2018-12-01T08:28:34.472Z,28.63
2018-12-01T08:31:02.572Z,32.17
2018-12-01T08:33:30.612Z,29.33
2018-12-01T08:35:58.700Z,22.90
2018-12-01T08:38:26.759Z,27.10
2018-12-01T08:40:54.739Z,34.30
2018-12-01T08:43:22.787Z,26.50
2018-12-01T08:45:50.764Z,29.63
2018-12-01T08:48:18.848Z,27.40
2018-12-01T08:50:46.896Z,20.40
2018-12-01T08:53:14.859Z,26.93
2018-12-01T08:55:42.832Z,26.00
2018-12-01T08:58:10.809Z,33.90
2018-12-01T09:00:40.927Z,26.10
2018-12-01T09:03:17.011Z,30.63
2018-12-01T09:05:44.995Z,36.37
2018-12-01T09:08:13.662Z,26.70
2018-12-01T09:10:42.986Z,33.17
2018-12-01T09:13:11.000Z,27.07
2018-12-01T09:15:39.079Z,31.53
2018-12-01T09:18:07.778Z,30.10
2018-12-01T09:20:35.796Z,28.97
2018-12-01T09:23:03.764Z,32.40
2018-12-01T09:25:31.884Z,32.70
2018-12-01T09:27:59.883Z,24.00
2018-12-01T09:30:29.027Z,22.40
2018-12-01T09:32:57.459Z,25.10
2018-12-01T09:35:25.019Z,25.47
2018-12-01T09:37:53.022Z,30.13
2018-12-01T09:40:22.266Z,28.77
2018-12-01T09:42:50.253Z,29.23
2018-12-01T09:45:20.664Z,30.33
2018-12-01T09:47:49.556Z,27.87
2018-12-01T09:50:17.513Z,23.80
2018-12-01T09:52:46.609Z,24.83
2018-12-01T09:55:17.836Z,25.77
2018-12-01T09:57:46.522Z,23.23
2018-12-01T10:00:16.762Z,24.17
2018-12-01T10:02:45.413Z,24.50
2018-12-01T10:05:14.736Z,29.20
2018-12-01T10:07:42.693Z,32.00
2018-12-01T10:10:12.015Z,20.53
2018-12-01T10:12:40.002Z,19.03
2018-12-01T10:15:14.179Z,29.23
2018-12-01T10:17:42.371Z,21.70
2018-12-01T10:20:11.935Z,26.73
2018-12-01T10:22:39.990Z,28.10
2018-12-01T10:25:11.206Z,30.83
2018-12-01T10:27:39.221Z,25.93
2018-12-01T10:30:16.652Z,24.00
2018-12-01T10:32:44.814Z,27.80
2018-12-01T10:35:14.040Z,21.77
2018-12-01T10:37:42.060Z,23.23
2018-12-01T10:40:11.962Z,24.20
2018-12-01T10:42:39.959Z,20.40
2018-12-01T10:45:14.295Z,23.70
2018-12-01T10:47:42.832Z,17.70
2018-12-01T10:50:11.952Z,21.13
2018-12-01T10:52:40.180Z,18.60
2018-12-01T10:55:28.915Z,25.30
2018-12-01T10:58:00.039Z,23.47
2018-12-01T11:00:33.424Z,17.10
2018-12-01T11:03:04.589Z,16.60
2018-12-01T11:05:33.646Z,20.60
2018-12-01T11:08:01.656Z,17.57
2018-12-01T11:10:29.640Z,21.80
2018-12-01T11:12:57.777Z,19.30
2018-12-01T11:15:25.848Z,17.93
2018-12-01T11:17:53.910Z,35.93
2018-12-01T11:20:21.873Z,17.73
2018-12-01T11:22:49.851Z,19.73
2018-12-01T11:25:18.274Z,15.00
2018-12-01T11:27:46.431Z,20.00
2018-12-01T11:30:15.487Z,19.77
2018-12-01T11:32:43.458Z,14.00
2018-12-01T11:35:11.418Z,15.80
2018-12-01T11:37:39.401Z,14.57
2018-12-01T11:40:09.094Z,16.60
2018-12-01T11:42:37.262Z,12.93
2018-12-01T11:45:07.646Z,13.07
2018-12-01T11:47:35.662Z,12.30
2018-12-01T11:50:05.315Z,15.67
2018-12-01T11:52:33.356Z,15.63
2018-12-01T11:55:01.396Z,17.23
2018-12-01T11:57:29.418Z,11.60
2018-12-01T11:59:57.361Z,12.87
2018-12-01T12:02:25.404Z,13.20
2018-12-01T12:04:53.400Z,20.07
2018-12-01T12:07:32.940Z,9.57
2018-12-01T12:10:00.910Z,11.87
2018-12-01T12:12:28.976Z,12.10
2018-12-01T12:14:56.937Z,10.90
2018-12-01T12:17:24.918Z,13.30
2018-12-01T12:19:52.889Z,9.10
2018-12-01T12:22:20.850Z,13.40
2018-12-01T12:24:48.795Z,11.03
2018-12-01T12:27:16.773Z,13.70
2018-12-01T12:29:44.735Z,21.73
2018-12-01T12:32:12.707Z,8.80
2018-12-01T12:34:40.664Z,15.63
2018-12-01T12:37:08.744Z,12.83
2018-12-01T12:39:36.720Z,16.93
2018-12-01T12:42:05.335Z,11.70
2018-12-01T12:44:33.296Z,10.73
2018-12-01T12:47:01.318Z,15.30
2018-12-01T12:49:29.286Z,9.10
2018-12-01T12:51:57.268Z,9.77
2018-12-01T12:54:25.259Z,10.63
2018-12-01T12:56:53.334Z,11.20
2018-12-01T12:59:21.323Z,12.83
2018-12-01T13:01:49.989Z,11.00
2018-12-01T13:04:17.960Z,9.10
2018-12-01T13:06:46.002Z,8.67
2018-12-01T13:09:14.102Z,11.43
2018-12-01T13:11:42.058Z,12.23
2018-12-01T13:14:10.072Z,12.77
2018-12-01T13:16:38.042Z,13.63
2018-12-01T13:19:06.037Z,13.73
2018-12-01T13:21:34.036Z,13.40
2018-12-01T13:24:02.030Z,13.23
2018-12-01T13:26:29.971Z,12.70
2018-12-01T13:28:58.002Z,12.20
2018-12-01T13:31:26.134Z,11.70
2018-12-01T13:33:54.180Z,9.07
2018-12-01T13:36:22.733Z,10.93
2018-12-01T13:38:50.805Z,10.90
2018-12-01T13:41:18.904Z,14.47
2018-12-01T13:43:46.863Z,11.97
2018-12-01T13:46:21.451Z,16.10
2018-12-01T13:48:49.470Z,17.33
2018-12-01T13:51:17.456Z,19.17
2018-12-01T13:53:45.530Z,10.33
2018-12-01T13:56:14.316Z,14.50
2018-12-01T13:58:42.388Z,11.57
2018-12-01T14:01:10.356Z,9.27
2018-12-01T14:03:38.377Z,13.20
2018-12-01T14:06:06.546Z,11.33
2018-12-01T14:08:34.534Z,9.23
2018-12-01T14:11:02.489Z,20.00
2018-12-01T14:13:30.510Z,13.97
2018-12-01T14:15:58.479Z,13.20
2018-12-01T14:18:26.535Z,10.07
2018-12-01T14:20:54.526Z,15.00
2018-12-01T14:23:23.568Z,10.93
2018-12-01T14:25:51.579Z,9.23
2018-12-01T14:28:19.539Z,11.50
2018-12-01T14:30:48.407Z,13.40
2018-12-01T14:33:16.497Z,12.07
2018-12-01T14:35:44.455Z,9.17
2018-12-01T14:38:17.167Z,16.63
2018-12-01T14:40:46.427Z,13.80
2018-12-01T14:43:14.530Z,20.03
2018-12-01T14:45:43.394Z,20.33
2018-12-01T14:48:11.479Z,15.33
2018-12-01T14:50:39.450Z,15.27
2018-12-01T14:53:08.724Z,17.60
2018-12-01T14:55:36.691Z,14.43
2018-12-01T14:58:04.990Z,14.20
2018-12-01T15:00:33.052Z,18.33
2018-12-01T15:03:01.006Z,32.90
2018-12-01T15:05:29.026Z,18.00
2018-12-01T15:07:57.059Z,19.70
2018-12-01T15:10:25.985Z,19.03
2018-12-01T15:12:53.978Z,25.83
2018-12-01T15:15:25.052Z,14.00
2018-12-01T15:17:53.039Z,18.90
2018-12-01T15:20:22.051Z,21.63
2018-12-01T15:22:53.077Z,20.20
2018-12-01T15:25:28.450Z,19.30
2018-12-01T15:27:56.723Z,26.80
2018-12-01T15:30:28.666Z,19.93
2018-12-01T15:33:03.075Z,17.20
2018-12-01T15:35:31.082Z,22.53
2018-12-01T15:37:59.106Z,23.00
2018-12-01T15:40:27.100Z,13.80
2018-12-01T15:42:55.102Z,18.47
2018-12-01T15:45:23.323Z,18.43
2018-12-01T15:47:51.412Z,14.87
2018-12-01T15:50:20.317Z,16.63
2018-12-01T15:52:51.299Z,16.10
2018-12-01T15:55:19.607Z,29.50
2018-12-01T15:57:47.621Z,20.13
2018-12-01T16:00:17.674Z,16.87
2018-12-01T16:02:46.478Z,24.33
2018-12-01T16:05:15.550Z,15.93
2018-12-01T16:07:43.656Z,19.27
2018-12-01T16:10:13.028Z,21.50
2018-12-01T16:12:41.311Z,23.03
2018-12-01T16:15:15.115Z,18.70
2018-12-01T16:17:43.074Z,19.17
2018-12-01T16:20:12.281Z,17.87
2018-12-01T16:22:40.255Z,20.77
2018-12-01T16:25:10.088Z,18.23
2018-12-01T16:27:38.895Z,21.80
2018-12-01T16:30:30.063Z,17.93
2018-12-01T16:33:00.440Z,28.67
2018-12-01T16:35:28.444Z,20.23
2018-12-01T16:37:56.601Z,16.07
2018-12-01T16:40:30.523Z,25.63
2018-12-01T16:42:59.939Z,19.77
2018-12-01T16:45:27.940Z,18.63
2018-12-01T16:47:55.986Z,14.90
2018-12-01T16:50:23.955Z,15.30
2018-12-01T16:52:51.952Z,24.27
2018-12-01T16:55:19.932Z,20.23
2018-12-01T16:57:47.950Z,20.07
2018-12-01T17:00:17.005Z,18.80
2018-12-01T17:02:47.312Z,15.43
2018-12-01T17:05:16.499Z,29.50
2018-12-01T17:07:44.494Z,18.73
2018-12-01T17:10:14.714Z,15.60
2018-12-01T17:12:43.240Z,19.37
2018-12-01T17:15:16.464Z,12.70
2018-12-01T17:17:44.463Z,18.87
2018-12-01T17:20:13.403Z,18.90
2018-12-01T17:22:43.563Z,19.47
2018-12-01T17:25:13.764Z,16.03
2018-12-01T17:27:41.877Z,16.57
2018-12-01T17:30:16.220Z,23.13
2018-12-01T17:32:44.230Z,15.90
2018-12-01T17:35:14.309Z,22.07
2018-12-01T17:37:42.695Z,18.90
2018-12-01T17:40:14.610Z,16.30
2018-12-01T17:42:44.756Z,18.73
2018-12-01T17:45:12.826Z,16.50
2018-12-01T17:47:40.802Z,20.60
2018-12-01T17:50:11.139Z,18.10
2018-12-01T17:52:39.801Z,21.23
2018-12-01T17:55:11.410Z,24.23
2018-12-01T17:57:39.406Z,16.97
2018-12-01T18:00:13.622Z,17.30
2018-12-01T18:02:41.672Z,17.70
2018-12-01T18:05:12.271Z,19.37
2018-12-01T18:07:40.366Z,23.23
2018-12-01T18:10:09.839Z,24.20
2018-12-01T18:12:37.891Z,18.47
2018-12-01T18:15:09.447Z,18.80
2018-12-01T18:17:37.562Z,20.60
2018-12-01T18:20:12.095Z,21.30
2018-12-01T18:22:40.188Z,23.90
2018-12-01T18:25:08.919Z,18.17
2018-12-01T18:27:36.968Z,20.83
2018-12-01T18:30:09.999Z,21.27
2018-12-01T18:32:38.023Z,19.20
2018-12-01T18:35:07.197Z,23.30
2018-12-01T18:37:35.360Z,24.33
2018-12-01T18:40:08.119Z,17.17
2018-12-01T18:42:36.108Z,20.43
2018-12-01T18:45:04.102Z,22.57
2018-12-01T18:47:32.071Z,22.37
2018-12-01T18:50:00.165Z,22.40
2018-12-01T18:52:28.171Z,22.77
2018-12-01T18:54:56.143Z,20.03
2018-12-01T18:57:24.137Z,25.30
2018-12-01T18:59:52.113Z,22.23
2018-12-01T19:02:20.063Z,25.80
2018-12-01T19:04:48.035Z,21.90
2018-12-01T19:07:16.050Z,21.03
2018-12-01T19:09:44.051Z,23.70
2018-12-01T19:12:12.116Z,22.03
2018-12-01T19:14:40.084Z,24.70
2018-12-01T19:17:08.057Z,29.47
2018-12-01T19:19:37.135Z,26.20
2018-12-01T19:22:05.410Z,24.80
2018-12-01T19:24:33.458Z,16.73
2018-12-01T19:27:01.523Z,22.30
2018-12-01T19:29:29.640Z,19.00
2018-12-01T19:31:57.920Z,20.60
2018-12-01T19:34:26.170Z,33.03
2018-12-01T19:36:54.222Z,20.27
2018-12-01T19:39:22.209Z,21.50
2018-12-01T19:41:50.535Z,21.67
2018-12-01T19:44:18.475Z,24.27
2018-12-01T19:46:46.476Z,23.53
2018-12-01T19:49:14.410Z,21.50
2018-12-01T19:51:42.396Z,26.87
2018-12-01T19:54:11.137Z,20.43
2018-12-01T19:56:39.231Z,22.60
2018-12-01T19:59:07.207Z,25.33
2018-12-01T20:01:35.452Z,20.43
2018-12-01T20:04:03.416Z,21.13
2018-12-01T20:06:31.392Z,23.27
2018-12-01T20:09:00.815Z,21.30
2018-12-01T20:11:27.571Z,23.30
2018-12-01T20:13:55.543Z,19.97
2018-12-01T20:16:25.351Z,24.63
2018-12-01T20:18:53.732Z,21.93
2018-12-01T20:21:22.322Z,21.03
2018-12-01T20:23:50.291Z,23.10
2018-12-01T20:26:18.547Z,22.83
2018-12-01T20:28:46.539Z,22.57
2018-12-01T20:31:14.488Z,20.10
2018-12-01T20:33:42.495Z,25.17
2018-12-01T20:36:18.895Z,24.60
2018-12-01T20:38:48.948Z,23.70
2018-12-01T20:41:16.969Z,28.90
2018-12-01T20:43:44.962Z,21.97
2018-12-01T20:46:12.948Z,23.20
2018-12-01T20:48:41.091Z,24.87
2018-12-01T20:51:09.648Z,24.27
2018-12-01T20:53:37.664Z,19.73
2018-12-01T20:56:11.319Z,22.93
2018-12-01T20:58:39.304Z,25.13
2018-12-01T21:01:07.363Z,21.00
2018-12-01T21:03:35.446Z,24.73
2018-12-01T21:06:03.422Z,23.67
2018-12-01T21:08:31.475Z,18.67
2018-12-01T21:11:01.654Z,22.73
2018-12-01T21:13:29.719Z,30.23
2018-12-01T21:15:57.693Z,28.43
2018-12-01T21:18:25.843Z,24.37
2018-12-01T21:20:53.826Z,22.97
2018-12-01T21:23:21.827Z,25.10
2018-12-01T21:25:50.607Z,32.00
2018-12-01T21:28:18.583Z,26.60
2018-12-01T21:30:47.655Z,21.53
2018-12-01T21:33:19.971Z,23.80
2018-12-01T21:35:47.986Z,23.83
2018-12-01T21:38:16.209Z,22.33
2018-12-01T21:40:44.429Z,25.60
2018-12-01T21:43:12.711Z,29.07
2018-12-01T21:45:40.852Z,22.93
2018-12-01T21:48:10.685Z,26.43
2018-12-01T21:50:39.479Z,22.37
2018-12-01T21:53:09.695Z,25.00
2018-12-01T21:55:37.642Z,19.10
2018-12-01T21:58:06.419Z,27.30
2018-12-01T22:00:34.403Z,18.37
2018-12-01T22:03:05.039Z,17.60
2018-12-01T22:06:06.144Z,27.97
2018-12-01T22:08:35.044Z,20.63
2018-12-01T22:11:03.003Z,23.33
2018-12-01T22:13:30.999Z,16.53
2018-12-01T22:15:58.947Z,19.23
2018-12-01T22:18:27.104Z,17.70
2018-12-01T22:20:55.107Z,12.13
2018-12-01T22:23:23.115Z,17.53
2018-12-01T22:25:51.192Z,13.87
2018-12-01T22:28:19.238Z,16.30
2018-12-01T22:30:49.299Z,12.77
2018-12-01T22:33:23.143Z,14.53
2018-12-01T22:35:51.101Z,9.97
2018-12-01T22:38:19.304Z,17.73
2018-12-01T22:40:47.557Z,11.13
2018-12-01T22:43:15.619Z,14.97
2018-12-01T22:45:43.624Z,10.83
2018-12-01T22:48:19.199Z,14.73
2018-12-01T22:50:48.835Z,13.40
2018-12-01T22:53:16.853Z,9.47
2018-12-01T22:55:45.303Z,11.77
2018-12-01T22:58:15.241Z,14.27
2018-12-01T23:00:48.635Z,16.73
2018-12-01T23:03:16.692Z,9.73
2018-12-01T23:05:44.714Z,12.03
2018-12-01T23:08:13.869Z,10.47
2018-12-01T23:10:41.890Z,13.70
2018-12-01T23:13:10.123Z,12.70
2018-12-01T23:15:39.022Z,11.17
2018-12-01T23:18:08.639Z,13.93
2018-12-01T23:20:37.474Z,11.50
2018-12-01T23:23:06.073Z,8.60
2018-12-01T23:25:34.043Z,9.57
2018-12-01T23:28:02.134Z,12.07
2018-12-01T23:30:30.838Z,11.70
2018-12-01T23:33:08.406Z,16.80
2018-12-01T23:35:36.566Z,10.00
2018-12-01T23:38:04.784Z,11.80
2018-12-01T23:40:32.758Z,12.90
2018-12-01T23:43:00.877Z,14.40
2018-12-01T23:45:28.919Z,8.40
2018-12-01T23:47:56.995Z,16.40
2018-12-01T23:50:25.902Z,9.23
2018-12-01T23:52:55.175Z,7.07
2018-12-01T23:55:23.182Z,10.60
2018-12-01T23:57:51.169Z,9.40
